createdAt,value
2019-04-26T00:00:55.020Z,100834.96
2019-04-26T00:03:27.249Z,100830.10
2019-04-26T00:06:02.161Z,100846.09
2019-04-26T00:08:34.750Z,100850.35
2019-04-26T00:11:07.312Z,100863.20
2019-04-26T00:13:39.614Z,100863.02
2019-04-26T00:16:12.664Z,100855.03
2019-04-26T00:18:44.954Z,100869.23
2019-04-26T00:21:18.226Z,100874.32
2019-04-26T00:23:51.041Z,100871.22
2019-04-26T00:26:23.628Z,100856.38
2019-04-26T00:28:55.986Z,100870.95
2019-04-26T00:31:28.482Z,100873.47
2019-04-26T00:34:01.847Z,100873.39
2019-04-26T00:36:34.174Z,100881.19
2019-04-26T00:39:07.462Z,100902.50
2019-04-26T00:41:39.984Z,100896.87
2019-04-26T00:44:13.301Z,100894.34
2019-04-26T00:46:46.157Z,100901.83
2019-04-26T00:49:21.251Z,100901.97
2019-04-26T00:51:56.113Z,100889.75
2019-04-26T00:54:28.409Z,100891.95
2019-04-26T00:57:00.770Z,100898.39
2019-04-26T00:59:33.013Z,100898.73
2019-04-26T01:02:05.267Z,100906.00
2019-04-26T01:04:37.453Z,100906.74
2019-04-26T01:07:09.726Z,100909.77
2019-04-26T01:09:41.971Z,100910.33
2019-04-26T01:12:16.814Z,100911.44
2019-04-26T01:14:51.027Z,100910.34
2019-04-26T01:17:23.242Z,100909.70
2019-04-26T01:19:55.629Z,100914.64
2019-04-26T01:22:27.997Z,100919.13
2019-04-26T01:25:00.308Z,100913.15
2019-04-26T01:27:32.609Z,100914.52
2019-04-26T01:30:06.928Z,100906.70
2019-04-26T01:32:39.263Z,100914.45
2019-04-26T01:35:11.498Z,100915.27
2019-04-26T01:37:43.879Z,100919.13
2019-04-26T01:40:16.123Z,100922.13
2019-04-26T01:42:48.234Z,100917.74
2019-04-26T01:45:21.686Z,100929.90
2019-04-26T01:47:54.118Z,100933.80
2019-04-26T01:50:27.380Z,100935.52
2019-04-26T01:53:01.359Z,100942.84
2019-04-26T01:55:33.698Z,100942.84
2019-04-26T01:58:05.898Z,100944.16
2019-04-26T02:00:38.149Z,100943.40
2019-04-26T02:03:11.453Z,100932.98
2019-04-26T02:05:45.799Z,100930.38
2019-04-26T02:08:18.038Z,100936.48
2019-04-26T02:10:50.337Z,100936.54
2019-04-26T02:13:23.619Z,100929.20
2019-04-26T02:15:56.514Z,100929.20
2019-04-26T02:18:29.784Z,100929.23
2019-04-26T02:21:02.041Z,100925.78
2019-04-26T02:23:34.407Z,100940.63
2019-04-26T02:26:06.646Z,100935.47
2019-04-26T02:28:38.936Z,100942.05
2019-04-26T02:31:11.142Z,100938.66
2019-04-26T02:33:43.403Z,100939.59
2019-04-26T02:36:15.654Z,100936.56
2019-04-26T02:38:47.889Z,100927.88
2019-04-26T02:41:22.386Z,100930.94
2019-04-26T02:43:54.610Z,100936.16
2019-04-26T02:46:28.633Z,100930.46
2019-04-26T02:49:00.850Z,100929.44
2019-04-26T02:51:34.753Z,100930.59
2019-04-26T02:54:07.160Z,100929.13
2019-04-26T02:56:40.102Z,100922.41
2019-04-26T02:59:12.586Z,100930.16
2019-04-26T03:01:44.861Z,100928.83
2019-04-26T03:04:17.055Z,100922.72
2019-04-26T03:07:02.516Z,100923.08
2019-04-26T03:09:23.210Z,100925.33
2019-04-26T03:11:55.399Z,100921.42
2019-04-26T03:14:27.602Z,100919.72
2019-04-26T03:17:00.095Z,100916.36
2019-04-26T03:19:36.210Z,100923.38
2019-04-26T03:22:09.568Z,100930.45
2019-04-26T03:24:42.610Z,100931.27
2019-04-26T03:27:14.955Z,100940.40
2019-04-26T03:29:47.176Z,100948.70
2019-04-26T03:32:19.373Z,100953.52
2019-04-26T03:34:54.957Z,100955.72
2019-04-26T03:37:25.553Z,100947.06
2019-04-26T03:39:57.636Z,100944.45
2019-04-26T03:42:29.882Z,100936.64
2019-04-26T03:45:02.084Z,100938.34
2019-04-26T03:47:38.576Z,100932.17
2019-04-26T03:50:09.690Z,100940.45
2019-04-26T03:52:43.546Z,100946.98
2019-04-26T03:55:18.122Z,100956.55
2019-04-26T03:57:50.388Z,100968.83
2019-04-26T04:00:22.578Z,100971.38
2019-04-26T04:02:54.793Z,100980.93
2019-04-26T04:05:27.200Z,100983.95
2019-04-26T04:07:59.412Z,100981.73
2019-04-26T04:10:31.761Z,100983.73
2019-04-26T04:13:04.044Z,100977.05
2019-04-26T04:15:37.886Z,100975.48
2019-04-26T04:18:10.229Z,100976.42
2019-04-26T04:20:43.149Z,100967.48
2019-04-26T04:23:16.435Z,100977.65
2019-04-26T04:25:49.210Z,100987.84
2019-04-26T04:28:21.573Z,100994.75
2019-04-26T04:30:53.775Z,101001.35
2019-04-26T04:33:26.142Z,101013.59
2019-04-26T04:35:58.640Z,101009.77
2019-04-26T04:38:31.080Z,101006.81
2019-04-26T04:41:03.343Z,100997.70
2019-04-26T04:43:35.556Z,100988.17
2019-04-26T04:46:07.945Z,100990.75
2019-04-26T04:48:42.382Z,100994.13
2019-04-26T04:51:14.345Z,100997.03
2019-04-26T04:53:47.803Z,100995.57
2019-04-26T04:56:20.149Z,100990.30
2019-04-26T04:58:52.585Z,100990.30
2019-04-26T05:01:24.792Z,100992.14
2019-04-26T05:03:57.038Z,101001.70
2019-04-26T05:06:29.295Z,100997.86
2019-04-26T05:09:01.510Z,100997.94
2019-04-26T05:11:35.362Z,100991.92
2019-04-26T05:14:07.567Z,100985.56
2019-04-26T05:16:39.655Z,100992.47
2019-04-26T05:19:11.919Z,100989.38
2019-04-26T05:21:45.344Z,100994.66
2019-04-26T05:24:17.783Z,100992.49
2019-04-26T05:26:50.093Z,101000.14
2019-04-26T05:29:22.478Z,101004.76
2019-04-26T05:31:54.707Z,101012.34
2019-04-26T05:34:26.941Z,101025.47
2019-04-26T05:36:59.216Z,101037.71
2019-04-26T05:39:31.439Z,101028.34
2019-04-26T05:42:03.683Z,101025.48
2019-04-26T05:44:36.063Z,101026.60
2019-04-26T05:47:08.272Z,101027.98
2019-04-26T05:49:40.517Z,101018.16
2019-04-26T05:52:13.712Z,101016.52
2019-04-26T05:54:46.157Z,101017.36
2019-04-26T05:57:18.461Z,101019.22
2019-04-26T05:59:52.300Z,101027.13
2019-04-26T06:02:24.671Z,101026.66
2019-04-26T06:04:57.206Z,101016.19
2019-04-26T06:07:29.682Z,101010.44
2019-04-26T06:10:03.004Z,101030.35
2019-04-26T06:12:35.380Z,101044.95
2019-04-26T06:15:07.705Z,101044.31
2019-04-26T06:17:39.951Z,101047.00
2019-04-26T06:20:22.270Z,101054.70
2019-04-26T06:22:46.175Z,101045.12
2019-04-26T06:25:18.426Z,101050.12
2019-04-26T06:27:50.545Z,101053.28
2019-04-26T06:30:24.067Z,101056.23
2019-04-26T06:33:03.214Z,101057.73
2019-04-26T06:35:30.355Z,101061.88
2019-04-26T06:38:03.939Z,101075.28
2019-04-26T06:40:42.101Z,101085.81
2019-04-26T06:43:13.546Z,101098.66
2019-04-26T06:45:48.129Z,101100.12
2019-04-26T06:48:21.777Z,101103.80
2019-04-26T06:50:54.021Z,101109.34
2019-04-26T06:53:26.320Z,101119.18
2019-04-26T06:55:59.128Z,101127.84
2019-04-26T06:58:31.882Z,101132.95
2019-04-26T07:01:05.335Z,101131.45
2019-04-26T07:03:39.119Z,101136.53
2019-04-26T07:06:12.140Z,101127.74
2019-04-26T07:08:56.721Z,101131.47
2019-04-26T07:11:18.437Z,101133.52
2019-04-26T07:13:50.814Z,101131.26
2019-04-26T07:16:23.488Z,101139.30
2019-04-26T07:18:55.862Z,101149.34
2019-04-26T07:21:28.430Z,101160.75
2019-04-26T07:24:01.223Z,101163.04
2019-04-26T07:26:34.844Z,101166.55
2019-04-26T07:29:07.182Z,101166.34
2019-04-26T07:31:41.698Z,101162.24
2019-04-26T07:34:13.961Z,101148.87
2019-04-26T07:36:46.171Z,101132.44
2019-04-26T07:39:20.712Z,101129.15
2019-04-26T07:41:52.773Z,101120.64
2019-04-26T07:44:24.999Z,101125.84
2019-04-26T07:46:57.303Z,101134.07
2019-04-26T07:49:29.815Z,101157.05
2019-04-26T07:52:02.939Z,101179.53
2019-04-26T07:54:35.245Z,101183.84
2019-04-26T07:57:08.652Z,101182.45
2019-04-26T07:59:41.112Z,101174.06
2019-04-26T08:02:13.442Z,101159.61
2019-04-26T08:04:45.677Z,101153.06
2019-04-26T08:07:17.914Z,101146.27
2019-04-26T08:09:59.862Z,101152.81
2019-04-26T08:12:26.183Z,101157.48
2019-04-26T08:14:58.479Z,101155.50
2019-04-26T08:17:30.698Z,101172.66
2019-04-26T08:20:06.647Z,101182.06
2019-04-26T08:22:36.969Z,101195.98
2019-04-26T08:25:10.323Z,101202.99
2019-04-26T08:27:43.771Z,101218.55
2019-04-26T08:30:18.936Z,101217.19
2019-04-26T08:32:50.223Z,101224.10
2019-04-26T08:35:22.491Z,101226.44
2019-04-26T08:37:54.769Z,101228.45
2019-04-26T08:40:31.097Z,101227.39
2019-04-26T08:43:00.968Z,101230.52
2019-04-26T08:45:33.260Z,101230.48
2019-04-26T08:48:05.498Z,101228.91
2019-04-26T08:50:37.748Z,101230.85
2019-04-26T08:53:11.197Z,101223.01
2019-04-26T08:55:43.487Z,101219.11
2019-04-26T08:58:15.793Z,101211.94
2019-04-26T09:00:47.993Z,101204.58
2019-04-26T09:03:20.542Z,101202.31
2019-04-26T09:05:52.772Z,101200.31
2019-04-26T09:08:25.002Z,101203.90
2019-04-26T09:10:57.261Z,101200.51
2019-04-26T09:13:29.582Z,101207.58
2019-04-26T09:16:01.950Z,101212.17
2019-04-26T09:18:43.241Z,101212.00
2019-04-26T09:21:08.181Z,101214.95
2019-04-26T09:23:44.176Z,101211.70
2019-04-26T09:26:14.407Z,101203.72
2019-04-26T09:28:46.813Z,101196.23
2019-04-26T09:31:19.586Z,101203.38
2019-04-26T09:33:53.225Z,101214.34
2019-04-26T09:36:25.550Z,101224.41
2019-04-26T09:38:57.772Z,101226.07
2019-04-26T09:41:30.807Z,101226.98
2019-04-26T09:44:03.274Z,101229.39
2019-04-26T09:46:35.519Z,101230.03
2019-04-26T09:49:08.558Z,101227.00
2019-04-26T09:51:42.107Z,101226.36
2019-04-26T09:54:16.888Z,101222.12
2019-04-26T09:56:49.108Z,101216.91
2019-04-26T09:59:21.573Z,101214.28
2019-04-26T10:01:55.410Z,101221.09
2019-04-26T10:04:27.848Z,101229.33
2019-04-26T10:07:03.177Z,101226.98
2019-04-26T10:09:34.249Z,101222.46
2019-04-26T10:12:07.645Z,101230.73
2019-04-26T10:14:39.923Z,101228.45
2019-04-26T10:17:15.639Z,101230.30
2019-04-26T10:19:46.220Z,101230.30
2019-04-26T10:22:18.750Z,101225.42
2019-04-26T10:24:51.047Z,101214.01
2019-04-26T10:27:23.258Z,101216.72
2019-04-26T10:30:03.057Z,101214.59
2019-04-26T10:32:29.419Z,101207.56
2019-04-26T10:35:01.685Z,101211.90
2019-04-26T10:37:39.644Z,101203.58
2019-04-26T10:40:08.098Z,101204.02
2019-04-26T10:42:40.398Z,101215.02
2019-04-26T10:45:14.502Z,101210.12
2019-04-26T10:47:46.561Z,101214.15
2019-04-26T10:50:18.861Z,101223.03
2019-04-26T10:52:55.516Z,101223.50
2019-04-26T10:55:27.360Z,101228.33
2019-04-26T10:57:59.790Z,101232.30
2019-04-26T11:00:31.991Z,101231.39
2019-04-26T11:03:06.025Z,101232.75
2019-04-26T11:05:38.311Z,101237.13
2019-04-26T11:08:10.595Z,101230.55
2019-04-26T11:10:48.719Z,101236.67
2019-04-26T11:13:17.026Z,101234.93
2019-04-26T11:15:49.269Z,101239.34
2019-04-26T11:18:27.351Z,101232.73
2019-04-26T11:20:57.603Z,101219.06
2019-04-26T11:23:29.814Z,101222.57
2019-04-26T11:26:02.915Z,101227.88
2019-04-26T11:28:35.309Z,101227.44
2019-04-26T11:31:07.656Z,101227.45
2019-04-26T11:33:45.082Z,101227.88
2019-04-26T11:36:14.032Z,101231.34
2019-04-26T11:38:46.261Z,101234.85
2019-04-26T11:41:18.442Z,101239.77
2019-04-26T11:43:53.005Z,101235.81
2019-04-26T11:46:29.140Z,101229.19
2019-04-26T11:48:59.506Z,101234.23
2019-04-26T11:51:32.692Z,101228.08
2019-04-26T11:54:04.961Z,101235.16
2019-04-26T11:56:37.544Z,101233.00
2019-04-26T11:59:12.088Z,101226.89
2019-04-26T12:01:44.288Z,101231.41
2019-04-26T12:04:16.659Z,101231.91
2019-04-26T12:06:48.970Z,101232.91
2019-04-26T12:09:21.216Z,101234.78
2019-04-26T12:12:03.949Z,101230.42
2019-04-26T12:14:29.599Z,101246.19
2019-04-26T12:17:02.422Z,101237.81
2019-04-26T12:19:34.664Z,101245.55
2019-04-26T12:22:08.373Z,101246.23
2019-04-26T12:24:40.833Z,101244.58
2019-04-26T12:27:13.294Z,101248.50
2019-04-26T12:29:48.227Z,101252.79
2019-04-26T12:32:19.687Z,101256.16
2019-04-26T12:34:51.959Z,101256.56
2019-04-26T12:37:24.588Z,101263.29
2019-04-26T12:39:58.791Z,101270.30
2019-04-26T12:42:31.166Z,101280.54
2019-04-26T12:45:03.394Z,101268.97
2019-04-26T12:47:38.559Z,101259.36
2019-04-26T12:50:10.359Z,101262.01
2019-04-26T12:52:42.732Z,101263.92
2019-04-26T12:55:18.287Z,101268.16
2019-04-26T12:57:50.447Z,101268.75
2019-04-26T13:00:22.687Z,101270.71
2019-04-26T13:02:55.807Z,101281.22
2019-04-26T13:05:28.689Z,101277.66
2019-04-26T13:08:01.591Z,101285.68
2019-04-26T13:10:35.503Z,101285.67
2019-04-26T13:13:09.476Z,101289.20
2019-04-26T13:15:42.405Z,101296.38
2019-04-26T13:18:15.381Z,101298.67
2019-04-26T13:20:48.182Z,101290.54
2019-04-26T13:23:21.130Z,101297.38
2019-04-26T13:25:55.433Z,101296.62
2019-04-26T13:28:28.450Z,101297.41
2019-04-26T13:31:02.457Z,101302.38
2019-04-26T13:33:35.618Z,101295.08
2019-04-26T13:36:08.576Z,101298.16
2019-04-26T13:38:43.446Z,101299.38
2019-04-26T13:41:15.971Z,101297.02
2019-04-26T13:43:48.805Z,101296.38
2019-04-26T13:46:21.709Z,101296.26
2019-04-26T13:48:54.577Z,101288.36
2019-04-26T13:51:26.817Z,101286.65
2019-04-26T13:53:59.131Z,101286.02
2019-04-26T13:56:35.491Z,101290.31
2019-04-26T13:59:05.896Z,101289.05
2019-04-26T14:01:38.156Z,101293.25
2019-04-26T14:04:10.451Z,101289.84
2019-04-26T14:06:42.759Z,101290.45
2019-04-26T14:09:15.179Z,101294.34
2019-04-26T14:11:47.499Z,101285.28
2019-04-26T14:14:19.859Z,101275.80
2019-04-26T14:16:55.825Z,101277.58
2019-04-26T14:19:26.500Z,101275.75
2019-04-26T14:21:59.103Z,101279.36
2019-04-26T14:24:32.414Z,101274.36
2019-04-26T14:27:04.863Z,101273.61
2019-04-26T14:29:37.355Z,101275.72
2019-04-26T14:32:09.753Z,101271.23
2019-04-26T14:34:43.815Z,101263.36
2019-04-26T14:37:16.747Z,101264.80
2019-04-26T14:39:51.230Z,101272.53
2019-04-26T14:42:33.727Z,101269.26
2019-04-26T14:44:57.429Z,101269.88
2019-04-26T14:47:30.533Z,101258.84
2019-04-26T14:50:13.702Z,101261.84
2019-04-26T14:52:37.645Z,101262.97
2019-04-26T14:55:09.855Z,101269.12
2019-04-26T14:57:42.797Z,101275.08
2019-04-26T15:00:16.699Z,101272.41
2019-04-26T15:02:49.111Z,101270.41
2019-04-26T15:05:22.228Z,101274.22
2019-04-26T15:07:55.583Z,101273.40
2019-04-26T15:10:27.913Z,101273.14
2019-04-26T15:13:14.975Z,101271.98
2019-04-26T15:15:36.213Z,101269.30
2019-04-26T15:18:08.422Z,101260.75
2019-04-26T15:20:40.800Z,101274.50
2019-04-26T15:23:13.416Z,101269.27
2019-04-26T15:25:48.849Z,101263.02
2019-04-26T15:28:19.647Z,101259.47
2019-04-26T15:30:52.726Z,101259.44
2019-04-26T15:33:25.320Z,101258.09
2019-04-26T15:35:57.574Z,101259.36
2019-04-26T15:38:35.200Z,101263.20
2019-04-26T15:41:05.498Z,101267.91
2019-04-26T15:43:37.687Z,101261.61
2019-04-26T15:46:12.329Z,101255.42
2019-04-26T15:48:44.133Z,101259.95
2019-04-26T15:51:16.418Z,101268.34
2019-04-26T15:53:49.661Z,101259.33
2019-04-26T15:56:22.354Z,101256.27
2019-04-26T15:58:54.535Z,101263.06
2019-04-26T16:01:26.839Z,101255.89
2019-04-26T16:03:59.058Z,101257.30
2019-04-26T16:06:32.427Z,101262.14
2019-04-26T16:09:04.681Z,101259.38
2019-04-26T16:11:42.818Z,101263.84
2019-04-26T16:14:12.808Z,101265.25
2019-04-26T16:16:45.093Z,101266.44
2019-04-26T16:19:17.369Z,101263.02
2019-04-26T16:21:52.739Z,101269.15
2019-04-26T16:24:27.528Z,101268.80
2019-04-26T16:26:58.061Z,101281.23
2019-04-26T16:29:32.066Z,101268.56
2019-04-26T16:32:04.526Z,101272.17
2019-04-26T16:34:42.940Z,101276.28
2019-04-26T16:37:14.945Z,101278.70
2019-04-26T16:39:48.585Z,101278.05
2019-04-26T16:42:18.748Z,101279.45
2019-04-26T16:44:53.147Z,101281.92
2019-04-26T16:47:25.000Z,101277.45
2019-04-26T16:50:01.126Z,101266.81
2019-04-26T16:52:33.688Z,101283.30
2019-04-26T16:55:15.301Z,101284.56
2019-04-26T16:57:43.765Z,101285.87
2019-04-26T17:00:46.823Z,101286.42
2019-04-26T17:02:48.675Z,101281.43
2019-04-26T17:05:35.543Z,101287.27
2019-04-26T17:07:58.859Z,101284.50
2019-04-26T17:10:29.087Z,101289.48
2019-04-26T17:13:03.047Z,101292.63
2019-04-26T17:15:35.601Z,101299.27
2019-04-26T17:18:07.964Z,101292.23
2019-04-26T17:20:40.598Z,101291.30
2019-04-26T17:23:15.291Z,101292.95
2019-04-26T17:25:47.520Z,101292.05
2019-04-26T17:28:22.981Z,101288.05
2019-04-26T17:30:54.133Z,101288.03
2019-04-26T17:33:28.235Z,101282.26
2019-04-26T17:36:00.486Z,101283.97
2019-04-26T17:38:35.194Z,101280.45
2019-04-26T17:41:10.910Z,101279.07
2019-04-26T17:43:46.861Z,101282.97
2019-04-26T17:46:18.321Z,101275.89
2019-04-26T17:48:50.435Z,101279.42
2019-04-26T17:51:23.354Z,101275.93
2019-04-26T17:54:18.971Z,101276.83
2019-04-26T17:56:31.403Z,101281.25
2019-04-26T17:59:09.203Z,101279.90
2019-04-26T18:01:46.888Z,101275.48
2019-04-26T18:04:12.843Z,101281.63
2019-04-26T18:06:54.339Z,101286.43
2019-04-26T18:09:40.442Z,101281.16
2019-04-26T18:11:55.276Z,101287.70
2019-04-26T18:14:30.345Z,101293.78
2019-04-26T18:17:01.606Z,101295.06
2019-04-26T18:19:35.293Z,101298.95
2019-04-26T18:22:08.588Z,101292.28
2019-04-26T18:24:40.836Z,101296.52
2019-04-26T18:27:14.781Z,101295.91
2019-04-26T18:29:47.196Z,101290.45
2019-04-26T18:32:19.441Z,101288.58
2019-04-26T18:34:53.500Z,101295.13
2019-04-26T18:37:25.628Z,101291.20
2019-04-26T18:40:02.070Z,101289.97
2019-04-26T18:42:33.505Z,101290.03
2019-04-26T18:45:06.046Z,101293.52
2019-04-26T18:47:38.395Z,101292.66
2019-04-26T18:50:10.807Z,101288.31
2019-04-26T18:52:43.126Z,101282.55
2019-04-26T18:55:16.359Z,101287.38
2019-04-26T18:57:55.143Z,101290.43
2019-04-26T19:00:26.457Z,101293.50
2019-04-26T19:03:00.015Z,101289.48
2019-04-26T19:05:33.714Z,101292.98
2019-04-26T19:08:07.566Z,101299.48
2019-04-26T19:10:40.016Z,101297.67
2019-04-26T19:13:12.501Z,101307.73
2019-04-26T19:15:44.934Z,101308.17
2019-04-26T19:18:17.302Z,101306.79
2019-04-26T19:20:49.550Z,101310.28
2019-04-26T19:23:24.441Z,101308.47
2019-04-26T19:25:55.995Z,101307.95
2019-04-26T19:28:29.443Z,101306.53
2019-04-26T19:31:02.397Z,101306.47
2019-04-26T19:33:35.050Z,101308.17
2019-04-26T19:36:07.367Z,101303.27
2019-04-26T19:38:43.734Z,101305.48
2019-04-26T19:41:17.336Z,101303.34
2019-04-26T19:43:48.072Z,101305.13
2019-04-26T19:46:23.413Z,101301.20
2019-04-26T19:48:56.569Z,101303.38
2019-04-26T19:51:28.243Z,101299.89
2019-04-26T19:54:01.792Z,101313.47
2019-04-26T19:56:35.514Z,101318.17
2019-04-26T19:59:07.743Z,101320.66
2019-04-26T20:01:40.078Z,101327.08
2019-04-26T20:04:13.512Z,101328.20
2019-04-26T20:06:48.456Z,101329.27
2019-04-26T20:09:22.749Z,101325.55
2019-04-26T20:11:57.867Z,101327.28
2019-04-26T20:14:39.887Z,101322.54
2019-04-26T20:17:02.080Z,101322.54
2019-04-26T20:19:37.502Z,101315.47
2019-04-26T20:22:09.921Z,101314.91
2019-04-26T20:24:42.992Z,101317.36
2019-04-26T20:27:20.408Z,101314.05
2019-04-26T20:29:49.550Z,101319.25
2019-04-26T20:32:24.682Z,101314.05
2019-04-26T20:34:57.002Z,101313.33
2019-04-26T20:37:29.181Z,101313.00
2019-04-26T20:40:16.308Z,101313.55
2019-04-26T20:42:35.357Z,101311.91
2019-04-26T20:45:08.458Z,101304.48
2019-04-26T20:47:41.733Z,101310.20
2019-04-26T20:50:14.094Z,101313.08
2019-04-26T20:52:46.566Z,101318.59
2019-04-26T20:55:24.645Z,101309.08
2019-04-26T20:57:52.749Z,101308.78
2019-04-26T21:00:24.953Z,101308.96
2019-04-26T21:03:01.453Z,101306.56
2019-04-26T21:05:45.294Z,101300.69
2019-04-26T21:08:05.095Z,101297.84
2019-04-26T21:10:37.409Z,101297.12
2019-04-26T21:13:09.692Z,101284.64
2019-04-26T21:15:53.531Z,101295.02
2019-04-26T21:18:15.855Z,101288.88
2019-04-26T21:20:52.112Z,101291.56
2019-04-26T21:23:24.388Z,101286.41
2019-04-26T21:25:56.677Z,101286.41
2019-04-26T21:28:29.066Z,101281.48
2019-04-26T21:31:03.438Z,101273.93
2019-04-26T21:33:38.884Z,101276.44
2019-04-26T21:36:09.342Z,101272.38
2019-04-26T21:38:41.556Z,101266.61
2019-04-26T21:41:14.377Z,101265.17
2019-04-26T21:43:46.729Z,101254.94
2019-04-26T21:46:20.137Z,101252.62
2019-04-26T21:48:53.650Z,101256.44
2019-04-26T21:51:25.917Z,101264.17
2019-04-26T21:53:58.150Z,101265.25
2019-04-26T21:56:32.068Z,101269.52
2019-04-26T21:59:05.529Z,101267.67
2019-04-26T22:01:37.743Z,101263.20
2019-04-26T22:04:13.273Z,101256.06
2019-04-26T22:06:45.944Z,101252.89
2019-04-26T22:09:18.211Z,101245.75
2019-04-26T22:11:53.979Z,101241.57
2019-04-26T22:14:24.416Z,101234.40
2019-04-26T22:16:57.502Z,101229.34
2019-04-26T22:19:32.295Z,101227.14
2019-04-26T22:22:06.969Z,101234.98
2019-04-26T22:24:38.903Z,101229.52
2019-04-26T22:27:13.325Z,101226.21
2019-04-26T22:29:47.548Z,101224.66
2019-04-26T22:32:19.853Z,101229.31
2019-04-26T22:34:53.819Z,101225.92
2019-04-26T22:37:29.866Z,101217.34
2019-04-26T22:40:03.558Z,101222.28
2019-04-26T22:42:40.354Z,101220.56
2019-04-26T22:45:10.549Z,101222.98
2019-04-26T22:47:42.880Z,101216.94
2019-04-26T22:50:20.825Z,101213.22
2019-04-26T22:52:51.595Z,101216.94
2019-04-26T22:55:27.408Z,101209.78
2019-04-26T22:57:58.280Z,101210.56
2019-04-26T23:00:30.490Z,101209.18
2019-04-26T23:03:06.925Z,101204.34
2019-04-26T23:05:39.157Z,101202.86
2019-04-26T23:08:10.728Z,101206.27
2019-04-26T23:10:43.040Z,101204.02
2019-04-26T23:13:15.275Z,101201.73
2019-04-26T23:15:47.746Z,101196.86
2019-04-26T23:18:20.171Z,101194.64
2019-04-26T23:20:53.314Z,101190.17
2019-04-26T23:23:25.595Z,101199.80
2019-04-26T23:25:57.897Z,101195.27
2019-04-26T23:28:33.978Z,101196.03
2019-04-26T23:31:07.813Z,101192.03
2019-04-26T23:33:37.958Z,101188.02
2019-04-26T23:36:10.168Z,101183.98
2019-04-26T23:38:43.858Z,101181.77
2019-04-26T23:41:16.305Z,101187.80
2019-04-26T23:43:48.572Z,101185.11
2019-04-26T23:46:22.833Z,101182.78
2019-04-26T23:48:54.753Z,101176.58
2019-04-26T23:51:26.939Z,101177.47
2019-04-26T23:53:59.309Z,101180.03
2019-04-26T23:56:33.206Z,101180.98
2019-04-26T23:59:05.895Z,101177.47
